sensor_id;sensor_type;location;lat;lon;timestamp;P1;durP1;ratioP1;P2;durP2;ratioP2
59468;SDS011;45277;52.768;18.262;2022-11-15T00:00:29;161.52;;;45.70;;
59468;SDS011;45277;52.768;18.262;2022-11-15T00:02:09;159.25;;;45.55;;
59468;SDS011;45277;52.768;18.262;2022-11-15T00:03:40;165.15;;;47.45;;
59468;SDS011;45277;52.768;18.262;2022-11-15T00:05:12;169.35;;;45.45;;
59468;SDS011;45277;52.768;18.262;2022-11-15T00:06:43;152.40;;;42.72;;
59468;SDS011;45277;52.768;18.262;2022-11-15T00:08:14;140.27;;;41.55;;
59468;SDS011;45277;52.768;18.262;2022-11-15T00:09:46;150.90;;;40.47;;
59468;SDS011;45277;52.768;18.262;2022-11-15T00:11:17;148.73;;;42.35;;
59468;SDS011;45277;52.768;18.262;2022-11-15T00:12:49;163.63;;;44.20;;
59468;SDS011;45277;52.768;18.262;2022-11-15T00:14:20;139.93;;;39.50;;
59468;SDS011;45277;52.768;18.262;2022-11-15T00:15:52;136.50;;;40.42;;
59468;SDS011;45277;52.768;18.262;2022-11-15T00:17:26;156.52;;;43.95;;
59468;SDS011;45277;52.768;18.262;2022-11-15T00:18:58;140.15;;;40.30;;
59468;SDS011;45277;52.768;18.262;2022-11-15T00:20:29;179.35;;;46.85;;
59468;SDS011;45277;52.768;18.262;2022-11-15T00:22:01;173.27;;;45.22;;
59468;SDS011;45277;52.768;18.262;2022-11-15T00:23:33;148.60;;;42.28;;
59468;SDS011;45277;52.768;18.262;2022-11-15T00:25:05;185.65;;;48.33;;
59468;SDS011;45277;52.768;18.262;2022-11-15T00:26:36;190.80;;;48.40;;
59468;SDS011;45277;52.768;18.262;2022-11-15T00:28:08;173.50;;;45.95;;
59468;SDS011;45277;52.768;18.262;2022-11-15T00:29:39;146.38;;;40.75;;
59468;SDS011;45277;52.768;18.262;2022-11-15T00:31:48;110.57;;;33.15;;
59468;SDS011;45277;52.768;18.262;2022-11-15T00:33:20;111.65;;;34.35;;
59468;SDS011;45277;52.768;18.262;2022-11-15T00:34:51;113.28;;;35.67;;
59468;SDS011;45277;52.768;18.262;2022-11-15T00:36:22;117.45;;;36.15;;
59468;SDS011;45277;52.768;18.262;2022-11-15T00:37:54;124.65;;;36.88;;
59468;SDS011;45277;52.768;18.262;2022-11-15T00:39:25;139.63;;;40.70;;
59468;SDS011;45277;52.768;18.262;2022-11-15T00:40:57;148.63;;;42.17;;
59468;SDS011;45277;52.768;18.262;2022-11-15T00:42:28;165.73;;;44.42;;
59468;SDS011;45277;52.768;18.262;2022-11-15T00:43:59;158.65;;;41.03;;
59468;SDS011;45277;52.768;18.262;2022-11-15T00:45:31;127.47;;;40.42;;
59468;SDS011;45277;52.768;18.262;2022-11-15T00:47:02;106.97;;;35.15;;
59468;SDS011;45277;52.768;18.262;2022-11-15T00:48:34;120.28;;;35.03;;
59468;SDS011;45277;52.768;18.262;2022-11-15T00:50:06;106.55;;;33.08;;
59468;SDS011;45277;52.768;18.262;2022-11-15T00:51:37;114.28;;;35.67;;
59468;SDS011;45277;52.768;18.262;2022-11-15T00:53:09;124.03;;;36.08;;
59468;SDS011;45277;52.768;18.262;2022-11-15T00:54:40;123.70;;;34.53;;
59468;SDS011;45277;52.768;18.262;2022-11-15T00:56:12;116.47;;;35.88;;
59468;SDS011;45277;52.768;18.262;2022-11-15T00:57:44;133.65;;;36.88;;
59468;SDS011;45277;52.768;18.262;2022-11-15T00:59:15;142.57;;;40.40;;
59468;SDS011;45277;52.768;18.262;2022-11-15T01:00:47;147.07;;;40.85;;
59468;SDS011;45277;52.768;18.262;2022-11-15T01:02:18;139.90;;;39.80;;
59468;SDS011;45277;52.768;18.262;2022-11-15T01:03:50;143.18;;;36.33;;
59468;SDS011;45277;52.768;18.262;2022-11-15T01:05:21;149.77;;;41.30;;
59468;SDS011;45277;52.768;18.262;2022-11-15T01:06:53;163.75;;;43.47;;
59468;SDS011;45277;52.768;18.262;2022-11-15T01:08:24;135.63;;;38.22;;
59468;SDS011;45277;52.768;18.262;2022-11-15T01:09:56;141.63;;;40.38;;
59468;SDS011;45277;52.768;18.262;2022-11-15T01:11:27;121.47;;;35.47;;
59468;SDS011;45277;52.768;18.262;2022-11-15T01:12:58;130.73;;;38.30;;
59468;SDS011;45277;52.768;18.262;2022-11-15T01:14:30;133.10;;;37.70;;
59468;SDS011;45277;52.768;18.262;2022-11-15T01:16:06;138.10;;;38.42;;
59468;SDS011;45277;52.768;18.262;2022-11-15T01:17:44;140.82;;;38.58;;
59468;SDS011;45277;52.768;18.262;2022-11-15T01:19:15;164.18;;;40.40;;
59468;SDS011;45277;52.768;18.262;2022-11-15T01:20:47;160.23;;;39.85;;
59468;SDS011;45277;52.768;18.262;2022-11-15T01:22:18;172.95;;;42.80;;
59468;SDS011;45277;52.768;18.262;2022-11-15T01:23:54;187.10;;;43.30;;
59468;SDS011;45277;52.768;18.262;2022-11-15T01:25:26;190.75;;;42.78;;
59468;SDS011;45277;52.768;18.262;2022-11-15T01:26:58;172.82;;;44.92;;
59468;SDS011;45277;52.768;18.262;2022-11-15T01:28:33;193.20;;;48.97;;
59468;SDS011;45277;52.768;18.262;2022-11-15T01:30:06;174.85;;;45.88;;
59468;SDS011;45277;52.768;18.262;2022-11-15T01:31:38;151.88;;;39.40;;
59468;SDS011;45277;52.768;18.262;2022-11-15T01:33:10;160.55;;;43.97;;
59468;SDS011;45277;52.768;18.262;2022-11-15T01:34:41;154.90;;;40.83;;
59468;SDS011;45277;52.768;18.262;2022-11-15T01:36:15;156.55;;;40.65;;
59468;SDS011;45277;52.768;18.262;2022-11-15T01:37:48;150.80;;;40.88;;
59468;SDS011;45277;52.768;18.262;2022-11-15T01:39:20;141.52;;;40.80;;
59468;SDS011;45277;52.768;18.262;2022-11-15T01:40:51;161.07;;;40.75;;
59468;SDS011;45277;52.768;18.262;2022-11-15T01:42:23;152.82;;;41.13;;
59468;SDS011;45277;52.768;18.262;2022-11-15T01:43:56;177.10;;;44.22;;
59468;SDS011;45277;52.768;18.262;2022-11-15T01:45:47;138.75;;;40.38;;
59468;SDS011;45277;52.768;18.262;2022-11-15T01:47:31;144.82;;;41.22;;
59468;SDS011;45277;52.768;18.262;2022-11-15T01:49:16;176.68;;;42.65;;
59468;SDS011;45277;52.768;18.262;2022-11-15T01:50:50;155.73;;;43.58;;
59468;SDS011;45277;52.768;18.262;2022-11-15T01:52:23;172.40;;;43.88;;
59468;SDS011;45277;52.768;18.262;2022-11-15T01:53:59;170.25;;;45.28;;
59468;SDS011;45277;52.768;18.262;2022-11-15T01:55:34;192.48;;;49.63;;
59468;SDS011;45277;52.768;18.262;2022-11-15T01:57:09;184.07;;;47.20;;
59468;SDS011;45277;52.768;18.262;2022-11-15T01:58:42;161.18;;;43.58;;
59468;SDS011;45277;52.768;18.262;2022-11-15T02:02:49;138.63;;;37.63;;
59468;SDS011;45277;52.768;18.262;2022-11-15T02:05:59;182.13;;;43.63;;
59468;SDS011;45277;52.768;18.262;2022-11-15T02:07:32;185.68;;;44.92;;
59468;SDS011;45277;52.768;18.262;2022-11-15T02:09:05;134.93;;;37.75;;
59468;SDS011;45277;52.768;18.262;2022-11-15T02:10:37;138.48;;;37.33;;
59468;SDS011;45277;52.768;18.262;2022-11-15T02:12:09;140.05;;;39.00;;
59468;SDS011;45277;52.768;18.262;2022-11-15T02:13:43;150.38;;;38.97;;
59468;SDS011;45277;52.768;18.262;2022-11-15T02:15:25;94.53;;;30.45;;
59468;SDS011;45277;52.768;18.262;2022-11-15T02:21:28;114.28;;;31.40;;
59468;SDS011;45277;52.768;18.262;2022-11-15T02:23:30;110.30;;;32.03;;
59468;SDS011;45277;52.768;18.262;2022-11-15T02:25:47;89.53;;;28.15;;
59468;SDS011;45277;52.768;18.262;2022-11-15T02:31:36;119.55;;;32.65;;
59468;SDS011;45277;52.768;18.262;2022-11-15T02:35:48;122.82;;;31.83;;
59468;SDS011;45277;52.768;18.262;2022-11-15T02:37:45;111.87;;;30.57;;
59468;SDS011;45277;52.768;18.262;2022-11-15T02:39:38;116.55;;;31.92;;
59468;SDS011;45277;52.768;18.262;2022-11-15T02:41:25;118.57;;;32.50;;
59468;SDS011;45277;52.768;18.262;2022-11-15T02:43:09;123.63;;;31.75;;
59468;SDS011;45277;52.768;18.262;2022-11-15T02:45:03;112.13;;;32.45;;
59468;SDS011;45277;52.768;18.262;2022-11-15T02:46:41;105.65;;;29.73;;
59468;SDS011;45277;52.768;18.262;2022-11-15T02:48:39;129.43;;;35.22;;
59468;SDS011;45277;52.768;18.262;2022-11-15T02:50:16;132.30;;;33.50;;
59468;SDS011;45277;52.768;18.262;2022-11-15T02:51:49;124.45;;;32.05;;
59468;SDS011;45277;52.768;18.262;2022-11-15T02:53:25;117.28;;;33.08;;
59468;SDS011;45277;52.768;18.262;2022-11-15T02:54:59;119.47;;;33.63;;
59468;SDS011;45277;52.768;18.262;2022-11-15T02:56:31;127.30;;;32.72;;
59468;SDS011;45277;52.768;18.262;2022-11-15T03:00:07;127.00;;;32.95;;
59468;SDS011;45277;52.768;18.262;2022-11-15T03:07:14;139.27;;;35.13;;
59468;SDS011;45277;52.768;18.262;2022-11-15T03:09:30;137.27;;;34.13;;
59468;SDS011;45277;52.768;18.262;2022-11-15T03:11:11;124.80;;;32.63;;
59468;SDS011;45277;52.768;18.262;2022-11-15T03:12:49;142.60;;;34.30;;
59468;SDS011;45277;52.768;18.262;2022-11-15T03:18:23;120.07;;;33.17;;
59468;SDS011;45277;52.768;18.262;2022-11-15T03:20:04;159.60;;;35.42;;
59468;SDS011;45277;52.768;18.262;2022-11-15T03:21:39;146.85;;;36.95;;
59468;SDS011;45277;52.768;18.262;2022-11-15T03:23:11;135.05;;;32.70;;
59468;SDS011;45277;52.768;18.262;2022-11-15T03:24:43;158.32;;;36.20;;
59468;SDS011;45277;52.768;18.262;2022-11-15T03:26:18;156.80;;;36.30;;
59468;SDS011;45277;52.768;18.262;2022-11-15T03:27:53;148.63;;;37.35;;
59468;SDS011;45277;52.768;18.262;2022-11-15T03:29:32;163.85;;;35.30;;
59468;SDS011;45277;52.768;18.262;2022-11-15T03:31:08;157.52;;;35.22;;
59468;SDS011;45277;52.768;18.262;2022-11-15T03:33:02;154.75;;;35.30;;
59468;SDS011;45277;52.768;18.262;2022-11-15T03:36:22;163.95;;;37.95;;
59468;SDS011;45277;52.768;18.262;2022-11-15T03:39:52;162.02;;;36.33;;
59468;SDS011;45277;52.768;18.262;2022-11-15T03:41:25;131.57;;;32.40;;
59468;SDS011;45277;52.768;18.262;2022-11-15T03:44:46;150.98;;;36.10;;
59468;SDS011;45277;52.768;18.262;2022-11-15T03:46:25;156.95;;;37.75;;
59468;SDS011;45277;52.768;18.262;2022-11-15T03:48:03;149.80;;;37.78;;
59468;SDS011;45277;52.768;18.262;2022-11-15T03:49:42;133.68;;;34.00;;
59468;SDS011;45277;52.768;18.262;2022-11-15T03:51:17;146.45;;;34.70;;
59468;SDS011;45277;52.768;18.262;2022-11-15T03:52:49;165.25;;;35.25;;
59468;SDS011;45277;52.768;18.262;2022-11-15T03:54:21;163.93;;;35.70;;
59468;SDS011;45277;52.768;18.262;2022-11-15T03:55:52;132.73;;;33.92;;
59468;SDS011;45277;52.768;18.262;2022-11-15T03:57:23;122.72;;;33.55;;
59468;SDS011;45277;52.768;18.262;2022-11-15T03:58:55;146.48;;;34.65;;
59468;SDS011;45277;52.768;18.262;2022-11-15T04:00:27;138.05;;;37.40;;
59468;SDS011;45277;52.768;18.262;2022-11-15T04:01:59;155.15;;;36.10;;
59468;SDS011;45277;52.768;18.262;2022-11-15T04:03:31;140.85;;;34.90;;
59468;SDS011;45277;52.768;18.262;2022-11-15T04:05:02;163.27;;;36.58;;
59468;SDS011;45277;52.768;18.262;2022-11-15T04:06:34;145.35;;;35.60;;
59468;SDS011;45277;52.768;18.262;2022-11-15T04:08:05;151.40;;;35.15;;
59468;SDS011;45277;52.768;18.262;2022-11-15T04:09:38;132.88;;;32.20;;
59468;SDS011;45277;52.768;18.262;2022-11-15T04:11:29;135.07;;;34.58;;
59468;SDS011;45277;52.768;18.262;2022-11-15T04:13:01;123.65;;;32.00;;
59468;SDS011;45277;52.768;18.262;2022-11-15T04:14:35;155.20;;;34.95;;
59468;SDS011;45277;52.768;18.262;2022-11-15T04:16:07;143.70;;;34.78;;
59468;SDS011;45277;52.768;18.262;2022-11-15T04:17:39;130.52;;;32.47;;
59468;SDS011;45277;52.768;18.262;2022-11-15T04:19:14;81.05;;;24.70;;
59468;SDS011;45277;52.768;18.262;2022-11-15T04:21:04;130.18;;;33.58;;
59468;SDS011;45277;52.768;18.262;2022-11-15T04:22:54;119.97;;;30.75;;
59468;SDS011;45277;52.768;18.262;2022-11-15T04:24:46;134.15;;;34.03;;
59468;SDS011;45277;52.768;18.262;2022-11-15T04:26:18;146.05;;;34.53;;
59468;SDS011;45277;52.768;18.262;2022-11-15T04:27:51;135.02;;;32.05;;
59468;SDS011;45277;52.768;18.262;2022-11-15T04:29:23;134.68;;;32.45;;
59468;SDS011;45277;52.768;18.262;2022-11-15T04:31:06;151.93;;;35.83;;
59468;SDS011;45277;52.768;18.262;2022-11-15T04:32:37;142.77;;;33.00;;
59468;SDS011;45277;52.768;18.262;2022-11-15T04:34:09;168.27;;;35.72;;
59468;SDS011;45277;52.768;18.262;2022-11-15T04:35:41;173.95;;;34.60;;
59468;SDS011;45277;52.768;18.262;2022-11-15T04:37:13;171.95;;;37.17;;
59468;SDS011;45277;52.768;18.262;2022-11-15T04:38:45;146.05;;;32.67;;
59468;SDS011;45277;52.768;18.262;2022-11-15T04:40:17;141.68;;;32.20;;
59468;SDS011;45277;52.768;18.262;2022-11-15T04:41:48;139.50;;;33.42;;
59468;SDS011;45277;52.768;18.262;2022-11-15T04:43:20;152.07;;;35.88;;
59468;SDS011;45277;52.768;18.262;2022-11-15T04:44:51;160.23;;;36.35;;
59468;SDS011;45277;52.768;18.262;2022-11-15T04:46:23;142.85;;;34.13;;
59468;SDS011;45277;52.768;18.262;2022-11-15T04:47:54;177.82;;;36.55;;
59468;SDS011;45277;52.768;18.262;2022-11-15T04:49:26;172.73;;;36.25;;
59468;SDS011;45277;52.768;18.262;2022-11-15T04:50:58;157.88;;;33.90;;
59468;SDS011;45277;52.768;18.262;2022-11-15T04:52:29;172.68;;;34.72;;
59468;SDS011;45277;52.768;18.262;2022-11-15T04:54:00;170.52;;;34.33;;
59468;SDS011;45277;52.768;18.262;2022-11-15T04:55:32;121.32;;;29.05;;
59468;SDS011;45277;52.768;18.262;2022-11-15T04:57:03;144.00;;;32.05;;
59468;SDS011;45277;52.768;18.262;2022-11-15T04:58:34;145.25;;;34.00;;
59468;SDS011;45277;52.768;18.262;2022-11-15T05:00:07;174.50;;;32.75;;
59468;SDS011;45277;52.768;18.262;2022-11-15T05:01:44;156.00;;;32.05;;
59468;SDS011;45277;52.768;18.262;2022-11-15T05:03:16;187.98;;;36.67;;
59468;SDS011;45277;52.768;18.262;2022-11-15T05:05:06;210.80;;;34.65;;
59468;SDS011;45277;52.768;18.262;2022-11-15T05:06:37;162.45;;;34.78;;
59468;SDS011;45277;52.768;18.262;2022-11-15T05:08:09;186.13;;;36.33;;
59468;SDS011;45277;52.768;18.262;2022-11-15T05:09:40;177.48;;;31.80;;
59468;SDS011;45277;52.768;18.262;2022-11-15T05:11:12;211.85;;;35.55;;
59468;SDS011;45277;52.768;18.262;2022-11-15T05:12:43;169.90;;;35.63;;
59468;SDS011;45277;52.768;18.262;2022-11-15T05:14:14;146.15;;;34.00;;
59468;SDS011;45277;52.768;18.262;2022-11-15T05:15:46;182.43;;;33.72;;
59468;SDS011;45277;52.768;18.262;2022-11-15T05:17:17;148.55;;;30.70;;
59468;SDS011;45277;52.768;18.262;2022-11-15T05:18:52;171.07;;;36.35;;
59468;SDS011;45277;52.768;18.262;2022-11-15T05:20:24;182.75;;;35.75;;
59468;SDS011;45277;52.768;18.262;2022-11-15T05:21:56;182.68;;;35.08;;
59468;SDS011;45277;52.768;18.262;2022-11-15T05:23:27;186.07;;;35.03;;
59468;SDS011;45277;52.768;18.262;2022-11-15T05:24:58;193.45;;;34.05;;
59468;SDS011;45277;52.768;18.262;2022-11-15T05:26:30;209.55;;;35.22;;
59468;SDS011;45277;52.768;18.262;2022-11-15T05:28:01;111.15;;;28.02;;
59468;SDS011;45277;52.768;18.262;2022-11-15T05:29:32;257.95;;;36.28;;
59468;SDS011;45277;52.768;18.262;2022-11-15T05:31:09;255.43;;;35.58;;
59468;SDS011;45277;52.768;18.262;2022-11-15T05:32:42;187.75;;;37.53;;
59468;SDS011;45277;52.768;18.262;2022-11-15T05:34:14;198.77;;;34.38;;
59468;SDS011;45277;52.768;18.262;2022-11-15T05:35:46;168.55;;;35.58;;
59468;SDS011;45277;52.768;18.262;2022-11-15T05:37:25;199.43;;;35.25;;
59468;SDS011;45277;52.768;18.262;2022-11-15T05:38:56;189.60;;;33.60;;
59468;SDS011;45277;52.768;18.262;2022-11-15T05:40:27;165.13;;;33.78;;
59468;SDS011;45277;52.768;18.262;2022-11-15T05:42:11;181.82;;;35.88;;
59468;SDS011;45277;52.768;18.262;2022-11-15T05:43:44;178.10;;;32.22;;
59468;SDS011;45277;52.768;18.262;2022-11-15T05:45:17;204.68;;;36.17;;
59468;SDS011;45277;52.768;18.262;2022-11-15T05:46:49;210.88;;;36.40;;
59468;SDS011;45277;52.768;18.262;2022-11-15T05:48:23;260.30;;;35.00;;
59468;SDS011;45277;52.768;18.262;2022-11-15T05:49:55;182.38;;;33.35;;
59468;SDS011;45277;52.768;18.262;2022-11-15T05:51:27;205.10;;;39.13;;
59468;SDS011;45277;52.768;18.262;2022-11-15T05:53:00;243.82;;;34.63;;
59468;SDS011;45277;52.768;18.262;2022-11-15T05:54:32;195.75;;;36.72;;
59468;SDS011;45277;52.768;18.262;2022-11-15T05:56:05;214.77;;;38.33;;
59468;SDS011;45277;52.768;18.262;2022-11-15T05:57:37;164.70;;;32.70;;
59468;SDS011;45277;52.768;18.262;2022-11-15T05:59:08;221.35;;;35.03;;
59468;SDS011;45277;52.768;18.262;2022-11-15T06:00:41;255.93;;;34.47;;
59468;SDS011;45277;52.768;18.262;2022-11-15T06:02:14;240.35;;;34.65;;
59468;SDS011;45277;52.768;18.262;2022-11-15T06:03:45;218.55;;;32.65;;
59468;SDS011;45277;52.768;18.262;2022-11-15T06:05:16;311.65;;;34.35;;
59468;SDS011;45277;52.768;18.262;2022-11-15T06:06:48;267.10;;;32.95;;
59468;SDS011;45277;52.768;18.262;2022-11-15T06:08:19;242.95;;;32.63;;
59468;SDS011;45277;52.768;18.262;2022-11-15T06:09:50;301.20;;;36.05;;
59468;SDS011;45277;52.768;18.262;2022-11-15T06:11:22;232.75;;;35.05;;
59468;SDS011;45277;52.768;18.262;2022-11-15T06:13:00;292.13;;;35.13;;
59468;SDS011;45277;52.768;18.262;2022-11-15T06:14:32;222.45;;;35.00;;
59468;SDS011;45277;52.768;18.262;2022-11-15T06:16:04;279.40;;;37.45;;
59468;SDS011;45277;52.768;18.262;2022-11-15T06:17:36;207.52;;;37.53;;
59468;SDS011;45277;52.768;18.262;2022-11-15T06:19:07;132.75;;;27.70;;
59468;SDS011;45277;52.768;18.262;2022-11-15T06:20:39;215.55;;;33.97;;
59468;SDS011;45277;52.768;18.262;2022-11-15T06:22:10;278.58;;;37.85;;
59468;SDS011;45277;52.768;18.262;2022-11-15T06:23:41;252.50;;;38.38;;
59468;SDS011;45277;52.768;18.262;2022-11-15T06:25:14;227.57;;;39.35;;
59468;SDS011;45277;52.768;18.262;2022-11-15T06:26:45;238.32;;;34.95;;
59468;SDS011;45277;52.768;18.262;2022-11-15T06:28:16;298.30;;;38.90;;
59468;SDS011;45277;52.768;18.262;2022-11-15T06:29:48;288.15;;;38.38;;
59468;SDS011;45277;52.768;18.262;2022-11-15T06:31:19;239.73;;;36.22;;
59468;SDS011;45277;52.768;18.262;2022-11-15T06:32:50;292.85;;;37.53;;
59468;SDS011;45277;52.768;18.262;2022-11-15T06:34:22;213.02;;;32.50;;
59468;SDS011;45277;52.768;18.262;2022-11-15T06:35:54;229.30;;;34.35;;
59468;SDS011;45277;52.768;18.262;2022-11-15T06:37:25;329.52;;;40.47;;
59468;SDS011;45277;52.768;18.262;2022-11-15T06:38:57;401.23;;;39.75;;
59468;SDS011;45277;52.768;18.262;2022-11-15T06:40:28;284.40;;;37.88;;
59468;SDS011;45277;52.768;18.262;2022-11-15T06:42:00;247.52;;;35.15;;
59468;SDS011;45277;52.768;18.262;2022-11-15T06:43:31;319.85;;;38.53;;
59468;SDS011;45277;52.768;18.262;2022-11-15T06:45:04;196.98;;;37.75;;
59468;SDS011;45277;52.768;18.262;2022-11-15T06:46:35;225.55;;;32.63;;
59468;SDS011;45277;52.768;18.262;2022-11-15T06:48:07;251.85;;;36.88;;
59468;SDS011;45277;52.768;18.262;2022-11-15T06:49:38;192.95;;;32.67;;
59468;SDS011;45277;52.768;18.262;2022-11-15T06:51:10;130.48;;;30.05;;
59468;SDS011;45277;52.768;18.262;2022-11-15T06:52:41;230.63;;;34.78;;
59468;SDS011;45277;52.768;18.262;2022-11-15T06:54:13;283.98;;;35.70;;
59468;SDS011;45277;52.768;18.262;2022-11-15T06:55:44;181.48;;;32.95;;
59468;SDS011;45277;52.768;18.262;2022-11-15T06:57:15;244.02;;;34.38;;
59468;SDS011;45277;52.768;18.262;2022-11-15T06:58:47;369.77;;;42.28;;
59468;SDS011;45277;52.768;18.262;2022-11-15T07:00:19;218.95;;;32.22;;
59468;SDS011;45277;52.768;18.262;2022-11-15T07:01:51;235.80;;;36.08;;
59468;SDS011;45277;52.768;18.262;2022-11-15T07:03:23;199.43;;;34.28;;
59468;SDS011;45277;52.768;18.262;2022-11-15T07:04:54;276.05;;;35.90;;
59468;SDS011;45277;52.768;18.262;2022-11-15T07:06:25;191.32;;;36.00;;
59468;SDS011;45277;52.768;18.262;2022-11-15T07:07:57;342.83;;;39.72;;
59468;SDS011;45277;52.768;18.262;2022-11-15T07:09:29;248.82;;;40.15;;
59468;SDS011;45277;52.768;18.262;2022-11-15T07:11:01;195.50;;;30.83;;
59468;SDS011;45277;52.768;18.262;2022-11-15T07:12:34;189.43;;;32.42;;
59468;SDS011;45277;52.768;18.262;2022-11-15T07:14:06;214.65;;;32.65;;
59468;SDS011;45277;52.768;18.262;2022-11-15T07:15:37;218.38;;;30.45;;
59468;SDS011;45277;52.768;18.262;2022-11-15T07:17:08;210.35;;;29.02;;
59468;SDS011;45277;52.768;18.262;2022-11-15T07:18:40;220.93;;;29.35;;
59468;SDS011;45277;52.768;18.262;2022-11-15T07:20:12;150.63;;;31.88;;
59468;SDS011;45277;52.768;18.262;2022-11-15T07:21:43;173.65;;;32.08;;
59468;SDS011;45277;52.768;18.262;2022-11-15T07:23:15;123.47;;;24.58;;
59468;SDS011;45277;52.768;18.262;2022-11-15T07:24:46;130.20;;;27.17;;
59468;SDS011;45277;52.768;18.262;2022-11-15T07:26:18;171.63;;;28.70;;
59468;SDS011;45277;52.768;18.262;2022-11-15T07:27:58;124.35;;;27.83;;
59468;SDS011;45277;52.768;18.262;2022-11-15T07:31:05;83.43;;;25.10;;
59468;SDS011;45277;52.768;18.262;2022-11-15T07:32:38;71.72;;;22.92;;
59468;SDS011;45277;52.768;18.262;2022-11-15T07:34:10;114.22;;;28.95;;
59468;SDS011;45277;52.768;18.262;2022-11-15T07:35:41;139.43;;;27.23;;
59468;SDS011;45277;52.768;18.262;2022-11-15T07:37:13;122.20;;;29.63;;
59468;SDS011;45277;52.768;18.262;2022-11-15T07:38:45;141.48;;;30.75;;
59468;SDS011;45277;52.768;18.262;2022-11-15T07:40:16;156.38;;;30.50;;
59468;SDS011;45277;52.768;18.262;2022-11-15T07:41:48;161.43;;;28.48;;
59468;SDS011;45277;52.768;18.262;2022-11-15T07:43:19;221.02;;;33.05;;
59468;SDS011;45277;52.768;18.262;2022-11-15T07:44:51;177.20;;;33.65;;
59468;SDS011;45277;52.768;18.262;2022-11-15T07:46:22;159.13;;;34.00;;
59468;SDS011;45277;52.768;18.262;2022-11-15T07:47:54;286.35;;;36.05;;
59468;SDS011;45277;52.768;18.262;2022-11-15T07:49:26;198.30;;;35.20;;
59468;SDS011;45277;52.768;18.262;2022-11-15T07:50:57;236.90;;;35.13;;
59468;SDS011;45277;52.768;18.262;2022-11-15T07:52:29;154.73;;;35.17;;
59468;SDS011;45277;52.768;18.262;2022-11-15T07:54:00;184.77;;;34.75;;
59468;SDS011;45277;52.768;18.262;2022-11-15T07:55:31;222.93;;;37.75;;
59468;SDS011;45277;52.768;18.262;2022-11-15T07:57:03;226.93;;;36.35;;
59468;SDS011;45277;52.768;18.262;2022-11-15T07:58:36;217.13;;;34.55;;
59468;SDS011;45277;52.768;18.262;2022-11-15T08:00:09;175.50;;;34.13;;
59468;SDS011;45277;52.768;18.262;2022-11-15T08:01:41;126.65;;;26.25;;
59468;SDS011;45277;52.768;18.262;2022-11-15T08:03:14;186.57;;;30.83;;
59468;SDS011;45277;52.768;18.262;2022-11-15T08:04:46;157.45;;;27.70;;
59468;SDS011;45277;52.768;18.262;2022-11-15T08:06:18;158.30;;;30.33;;
59468;SDS011;45277;52.768;18.262;2022-11-15T08:07:50;140.63;;;27.80;;
59468;SDS011;45277;52.768;18.262;2022-11-15T08:09:21;188.55;;;30.75;;
59468;SDS011;45277;52.768;18.262;2022-11-15T08:10:52;130.88;;;28.88;;
59468;SDS011;45277;52.768;18.262;2022-11-15T08:12:24;130.15;;;29.30;;
59468;SDS011;45277;52.768;18.262;2022-11-15T08:13:55;115.45;;;29.02;;
59468;SDS011;45277;52.768;18.262;2022-11-15T08:15:27;107.97;;;30.60;;
59468;SDS011;45277;52.768;18.262;2022-11-15T08:16:59;111.35;;;29.95;;
59468;SDS011;45277;52.768;18.262;2022-11-15T08:18:30;112.65;;;27.45;;
59468;SDS011;45277;52.768;18.262;2022-11-15T08:20:02;105.10;;;28.08;;
59468;SDS011;45277;52.768;18.262;2022-11-15T08:21:34;104.88;;;29.10;;
59468;SDS011;45277;52.768;18.262;2022-11-15T08:23:06;114.38;;;28.20;;
59468;SDS011;45277;52.768;18.262;2022-11-15T08:24:38;114.25;;;29.63;;
59468;SDS011;45277;52.768;18.262;2022-11-15T08:26:09;103.43;;;28.65;;
59468;SDS011;45277;52.768;18.262;2022-11-15T08:27:41;127.10;;;30.67;;
59468;SDS011;45277;52.768;18.262;2022-11-15T08:29:12;160.63;;;31.85;;
59468;SDS011;45277;52.768;18.262;2022-11-15T08:30:44;138.88;;;32.30;;
59468;SDS011;45277;52.768;18.262;2022-11-15T08:32:16;153.45;;;31.23;;
59468;SDS011;45277;52.768;18.262;2022-11-15T08:33:48;107.78;;;28.02;;
59468;SDS011;45277;52.768;18.262;2022-11-15T08:35:20;101.90;;;26.95;;
59468;SDS011;45277;52.768;18.262;2022-11-15T08:36:51;109.15;;;27.98;;
59468;SDS011;45277;52.768;18.262;2022-11-15T08:38:23;120.45;;;26.02;;
59468;SDS011;45277;52.768;18.262;2022-11-15T08:39:54;130.73;;;29.63;;
59468;SDS011;45277;52.768;18.262;2022-11-15T08:41:44;144.23;;;27.60;;
59468;SDS011;45277;52.768;18.262;2022-11-15T08:43:15;103.93;;;28.13;;
59468;SDS011;45277;52.768;18.262;2022-11-15T08:44:47;120.25;;;27.90;;
59468;SDS011;45277;52.768;18.262;2022-11-15T08:46:18;127.30;;;28.95;;
59468;SDS011;45277;52.768;18.262;2022-11-15T08:47:50;108.72;;;29.23;;
59468;SDS011;45277;52.768;18.262;2022-11-15T08:49:21;102.43;;;28.30;;
59468;SDS011;45277;52.768;18.262;2022-11-15T08:50:56;112.97;;;28.35;;
59468;SDS011;45277;52.768;18.262;2022-11-15T08:52:28;138.40;;;28.77;;
59468;SDS011;45277;52.768;18.262;2022-11-15T08:53:59;121.13;;;28.08;;
59468;SDS011;45277;52.768;18.262;2022-11-15T08:55:31;114.22;;;29.52;;
59468;SDS011;45277;52.768;18.262;2022-11-15T08:57:02;112.47;;;30.05;;
59468;SDS011;45277;52.768;18.262;2022-11-15T08:58:34;112.18;;;34.40;;
59468;SDS011;45277;52.768;18.262;2022-11-15T09:00:06;104.95;;;31.13;;
59468;SDS011;45277;52.768;18.262;2022-11-15T09:01:38;105.82;;;30.67;;
59468;SDS011;45277;52.768;18.262;2022-11-15T09:03:09;83.30;;;28.48;;
59468;SDS011;45277;52.768;18.262;2022-11-15T09:04:41;111.22;;;28.00;;
59468;SDS011;45277;52.768;18.262;2022-11-15T09:06:13;71.80;;;27.80;;
59468;SDS011;45277;52.768;18.262;2022-11-15T09:07:45;154.30;;;29.23;;
59468;SDS011;45277;52.768;18.262;2022-11-15T09:09:16;95.38;;;29.17;;
59468;SDS011;45277;52.768;18.262;2022-11-15T09:10:48;101.32;;;28.83;;
59468;SDS011;45277;52.768;18.262;2022-11-15T09:12:19;112.70;;;30.45;;
59468;SDS011;45277;52.768;18.262;2022-11-15T09:13:50;164.45;;;32.97;;
59468;SDS011;45277;52.768;18.262;2022-11-15T09:15:22;141.75;;;34.83;;
59468;SDS011;45277;52.768;18.262;2022-11-15T09:16:53;148.77;;;33.45;;
59468;SDS011;45277;52.768;18.262;2022-11-15T09:18:26;141.30;;;34.38;;
59468;SDS011;45277;52.768;18.262;2022-11-15T09:19:58;177.48;;;39.22;;
59468;SDS011;45277;52.768;18.262;2022-11-15T09:21:30;152.23;;;38.40;;
59468;SDS011;45277;52.768;18.262;2022-11-15T09:23:02;127.85;;;37.60;;
59468;SDS011;45277;52.768;18.262;2022-11-15T09:24:34;136.90;;;41.40;;
59468;SDS011;45277;52.768;18.262;2022-11-15T09:26:06;132.52;;;35.67;;